Time;durP1;ratioP1;P1;durP2;ratioP2;P2;SDS_P1;SDS_P2;PMS_P1;PMS_P2;Temp;Humidity;BMP_temperature;BMP_pressure;BME280_temperature;BME280_humidity;BME280_pressure;Samples;Min_cycle;Max_cycle;Signal;HPM_P1;HPM_P2
2021/09/28 00:02:21;;;;;;;0.32;0.15;;;;;;;18.92;63.73;102668.41;5034358;28;20088;-69
2021/09/28 00:04:55;;;;;;;0.45;0.10;;;;;;;18.94;63.64;102682.78;5055688;28;20017;-69
2021/09/28 00:07:20;;;;;;;;;;;;;;;18.92;62.68;102670.28;5044994;28;20101;-69
2021/09/28 00:09:45;;;;;;;0.57;0.20;;;;;;;18.89;63.41;102673.25;5033874;28;20349;-69
2021/09/28 00:12:11;;;;;;;0.63;0.20;;;;;;;18.89;62.85;102674.13;5034077;28;20529;-69
2021/09/28 00:14:37;;;;;;;0.28;0.20;;;;;;;18.93;63.23;102681.03;5034211;28;20021;-69
2021/09/28 00:17:03;;;;;;;0.70;0.25;;;;;;;18.91;62.53;102677.59;5034030;28;20025;-69
2021/09/28 00:19:29;;;;;;;0.38;0.30;;;;;;;18.87;62.49;102676.13;5036195;28;20021;-69
2021/09/28 00:21:54;;;;;;;0.10;0.10;;;;;;;18.86;62.79;102677.13;5033793;28;20029;-69
2021/09/28 00:24:19;;;;;;;0.43;0.20;;;;;;;18.87;63.05;102670.69;5016385;28;20521;-69
2021/09/28 00:26:44;;;;;;;0.35;0.20;;;;;;;18.85;63.25;102682.72;5033767;28;20021;-69
2021/09/28 00:29:10;;;;;;;0.40;0.10;;;;;;;18.85;61.95;102680.84;5033519;28;20025;-70
2021/09/28 00:31:35;;;;;;;0.28;0.20;;;;;;;18.83;63.23;102685.56;5033627;28;20025;-70
2021/09/28 00:34:01;;;;;;;0.20;0.20;;;;;;;18.84;62.44;102676.41;5032987;28;20045;-69
2021/09/28 00:36:26;;;;;;;0.65;0.22;;;;;;;18.83;63.55;102668.34;5043377;28;20032;-70
2021/09/28 00:38:52;;;;;;;0.28;0.15;;;;;;;18.79;63.58;102684.06;5033585;28;20029;-69
2021/09/28 00:41:18;;;;;;;0.60;0.22;;;;;;;18.82;63.19;102677.53;5036477;28;20380;-69
2021/09/28 00:43:53;;;;;;;0.38;0.30;;;;;;;18.84;61.96;102670.94;5033475;28;20500;-69
2021/09/28 00:46:18;;;;;;;0.57;0.10;;;;;;;18.83;61.38;102669.22;5033511;28;20437;-69
2021/09/28 00:48:44;;;;;;;0.10;0.10;;;;;;;18.81;63.33;102673.03;5033786;28;20100;-69
2021/09/28 00:51:11;;;;;;;0.10;0.10;;;;;;;18.81;63.72;102671.22;5033236;28;20021;-69
2021/09/28 00:53:39;;;;;;;0.50;0.30;;;;;;;18.81;62.12;102675.75;5033609;28;20100;-69
2021/09/28 00:56:06;;;;;;;0.10;0.10;;;;;;;18.79;62.96;102666.84;5033405;28;20025;-69
2021/09/28 00:58:32;;;;;;;0.73;0.30;;;;;;;18.80;64.26;102672.16;5015690;28;20018;-69
2021/09/28 01:01:01;;;;;;;0.20;0.10;;;;;;;18.79;62.67;102664.13;5036217;28;20030;-70
2021/09/28 01:03:27;;;;;;;0.60;0.40;;;;;;;18.76;62.17;102668.00;5033134;28;20021;-69
2021/09/28 01:06:18;;;;;;;0.38;0.20;;;;;;;18.76;63.37;102667.13;5038475;28;20032;-69
2021/09/28 01:08:43;;;;;;;1.15;0.40;;;;;;;18.80;62.38;102663.13;5033475;28;20095;-69
2021/09/28 01:11:09;;;;;;;0.10;0.10;;;;;;;18.78;63.04;102668.72;5032664;28;20480;-69
2021/09/28 01:13:34;;;;;;;0.30;0.30;;;;;;;18.76;63.07;102668.00;5032771;28;20901;-69
2021/09/28 01:15:59;;;;;;;0.10;0.10;;;;;;;18.78;63.16;102662.41;5033204;28;20037;-69
2021/09/28 01:18:26;;;;;;;0.13;0.13;;;;;;;18.76;63.59;102659.81;5033073;28;20342;-69
2021/09/28 01:20:52;;;;;;;0.40;0.28;;;;;;;18.75;62.96;102659.94;5037602;28;20041;-69
2021/09/28 01:23:17;;;;;;;0.75;0.30;;;;;;;18.74;62.17;102659.09;5033067;28;20068;-69
2021/09/28 01:25:42;;;;;;;0.10;0.10;;;;;;;18.75;62.80;102654.50;5032931;28;20029;-69
2021/09/28 01:28:08;;;;;;;0.30;0.30;;;;;;;18.73;63.24;102646.47;5033117;28;20346;-69
2021/09/28 01:30:34;;;;;;;0.68;0.20;;;;;;;18.76;61.74;102646.19;5032992;28;20041;-69
2021/09/28 01:33:00;;;;;;;0.35;0.10;;;;;;;18.75;61.45;102649.91;5032943;28;20390;-69
2021/09/28 01:36:03;;;;;;;0.20;0.10;;;;;;;18.74;64.62;102642.72;5046635;28;20037;-69
2021/09/28 01:38:29;;;;;;;0.20;0.20;;;;;;;18.75;62.32;102636.28;5060588;28;20038;-69
2021/09/28 01:40:55;;;;;;;0.60;0.30;;;;;;;18.74;63.48;102642.72;5033086;28;20041;-69
2021/09/28 01:43:20;;;;;;;0.43;0.30;;;;;;;18.75;62.62;102636.28;5032964;28;20483;-70
2021/09/28 01:45:47;;;;;;;0.60;0.13;;;;;;;18.72;63.18;102628.38;5039169;28;20043;-69
2021/09/28 01:48:13;;;;;;;0.50;0.20;;;;;;;18.72;64.60;102639.28;5036943;28;20629;-69
2021/09/28 01:50:39;;;;;;;0.80;0.10;;;;;;;18.68;62.14;102626.91;5036735;28;20040;-70
2021/09/28 01:53:05;;;;;;;0.00;0.00;;;;;;;18.70;62.47;102619.47;5036899;28;20025;-69
2021/09/28 01:55:30;;;;;;;0.47;0.10;;;;;;;18.70;61.61;102616.75;5036469;28;20100;-69
2021/09/28 01:57:56;;;;;;;0.40;0.20;;;;;;;18.70;62.45;102616.75;5036844;28;20387;-69
2021/09/28 02:00:23;;;;;;;0.65;0.20;;;;;;;18.70;62.89;102611.31;5036779;28;20032;-69
2021/09/28 02:02:48;;;;;;;0.35;0.10;;;;;;;18.71;63.17;102609.44;5036515;28;20372;-69
2021/09/28 02:05:15;;;;;;;0.50;0.20;;;;;;;18.69;62.63;102612.31;5037299;28;20075;-69
2021/09/28 02:07:57;;;;;;;0.20;0.10;;;;;;;18.71;63.16;102614.88;5062345;28;20040;-68
2021/09/28 02:10:23;;;;;;;0.45;0.13;;;;;;;18.69;63.46;102606.00;5036000;28;20050;-69
2021/09/28 02:12:48;;;;;;;0.28;0.05;;;;;;;18.70;62.87;102613.16;5036421;28;20033;-69
2021/09/28 02:15:13;;;;;;;0.40;0.10;;;;;;;18.67;63.70;102614.28;5036444;28;20354;-69
2021/09/28 02:17:40;;;;;;;0.17;0.10;;;;;;;18.66;63.29;102612.56;5036374;28;20022;-69
2021/09/28 02:20:06;;;;;;;0.52;0.10;;;;;;;18.67;63.13;102602.53;5036124;28;20108;-69
2021/09/28 02:22:32;;;;;;;0.20;0.10;;;;;;;18.67;62.58;102608.84;5036363;28;20388;-69
2021/09/28 02:24:57;;;;;;;0.40;0.10;;;;;;;18.69;61.43;102601.41;5035980;28;20021;-69
2021/09/28 02:27:23;;;;;;;0.17;0.10;;;;;;;18.66;63.40;102601.66;5036164;28;20469;-69
2021/09/28 02:29:48;;;;;;;0.15;0.15;;;;;;;18.65;62.89;102599.94;5036062;28;20025;-69
2021/09/28 02:32:13;;;;;;;0.15;0.10;;;;;;;18.68;63.81;102602.41;5036976;28;20461;-68
2021/09/28 02:34:39;;;;;;;0.10;0.08;;;;;;;18.67;62.44;102592.50;5036214;28;20025;-69
2021/09/28 02:37:05;;;;;;;0.10;0.10;;;;;;;18.65;62.44;102599.94;5051250;28;20018;-69
2021/09/28 02:39:31;;;;;;;0.55;0.10;;;;;;;18.64;62.83;102598.19;5018453;28;20061;-69
2021/09/28 02:41:57;;;;;;;0.35;0.17;;;;;;;18.62;63.44;102589.25;5036067;28;20052;-69
2021/09/28 02:44:22;;;;;;;0.10;0.10;;;;;;;18.62;63.42;102591.97;5035620;28;20101;-69
2021/09/28 02:46:48;;;;;;;0.20;0.10;;;;;;;18.62;61.97;102589.25;5036018;28;20483;-69
2021/09/28 02:49:14;;;;;;;0.50;0.03;;;;;;;18.61;63.52;102592.97;5035488;28;20032;-69
2021/09/28 02:51:39;;;;;;;0.68;0.10;;;;;;;18.63;63.51;102588.28;5020067;28;20085;-69
2021/09/28 02:54:05;;;;;;;0.73;0.10;;;;;;;18.64;62.62;102587.28;5017719;28;20129;-69
2021/09/28 02:56:30;;;;;;;0.20;0.20;;;;;;;18.62;62.99;102586.53;5034523;28;20022;-69
2021/09/28 02:58:56;;;;;;;0.35;0.03;;;;;;;18.62;62.62;102586.53;5035803;28;20112;-69
2021/09/28 03:01:54;;;;;;;0.20;0.20;;;;;;;18.61;62.28;102592.97;5035621;28;20017;-69
2021/09/28 03:04:20;;;;;;;0.47;0.28;;;;;;;18.62;62.97;102583.81;5035362;28;20037;-69
2021/09/28 03:06:45;;;;;;;0.77;0.20;;;;;;;18.63;62.01;102585.56;5035302;28;20036;-69
2021/09/28 03:09:10;;;;;;;0.28;0.10;;;;;;;18.64;62.79;102587.28;5017601;28;20033;-69
2021/09/28 03:11:37;;;;;;;0.52;0.10;;;;;;;18.60;63.26;102574.91;5035776;28;20529;-69
2021/09/28 03:14:02;;;;;;;0.43;0.20;;;;;;;18.59;64.00;102557.69;5035357;28;20056;-69
2021/09/28 03:16:27;;;;;;;0.30;0.13;;;;;;;18.62;62.75;102559.28;5017878;28;20547;-69
2021/09/28 03:18:53;;;;;;;0.35;0.20;;;;;;;18.61;61.94;102560.28;5035282;28;20025;-70
2021/09/28 03:21:18;;;;;;;0.25;0.10;;;;;;;18.61;62.75;102561.16;5035150;28;20100;-69
2021/09/28 03:23:44;;;;;;;0.10;0.10;;;;;;;18.61;61.74;102549.38;5038601;28;20019;-69
2021/09/28 03:26:10;;;;;;;0.10;0.00;;;;;;;18.58;62.31;102550.50;5030919;28;20057;-70
2021/09/28 03:28:36;;;;;;;0.25;0.15;;;;;;;18.57;62.57;102547.94;5017188;28;20384;-69
2021/09/28 03:31:02;;;;;;;0.50;0.10;;;;;;;18.58;63.60;102542.34;5034985;28;20036;-69
2021/09/28 03:33:27;;;;;;;0.47;0.10;;;;;;;18.58;63.92;102541.47;5038683;28;20026;-70
2021/09/28 03:35:53;;;;;;;0.22;0.10;;;;;;;18.62;62.66;102532.91;5034920;28;20026;-69
2021/09/28 03:38:19;;;;;;;0.20;0.10;;;;;;;18.60;62.64;102542.22;5034479;28;20032;-70
2021/09/28 03:40:45;;;;;;;0.32;0.10;;;;;;;18.60;62.93;102536.75;5017344;28;20037;-69
2021/09/28 03:43:10;;;;;;;0.32;0.10;;;;;;;18.59;62.60;102532.31;5034752;28;20071;-69
2021/09/28 03:45:37;;;;;;;0.20;0.10;;;;;;;18.56;63.05;102536.16;5034563;28;20474;-70
2021/09/28 03:48:03;;;;;;;0.00;0.00;;;;;;;18.54;63.41;102529.13;5016917;28;20029;-69
2021/09/28 03:50:29;;;;;;;0.00;0.00;;;;;;;18.55;62.84;102530.84;5037835;28;20025;-69
2021/09/28 03:53:51;;;;;;;0.38;0.10;;;;;;;18.56;63.48;102527.13;5042337;28;20036;-69
2021/09/28 03:56:18;;;;;;;0.30;0.20;;;;;;;18.56;62.82;102519.81;4935138;29;20048;-70
2021/09/28 03:58:43;;;;;;;0.22;0.00;;;;;;;18.55;61.68;102525.41;4934859;29;20032;-69
2021/09/28 04:01:10;;;;;;;0.25;0.08;;;;;;;18.53;63.07;102519.22;4934639;29;20037;-69
2021/09/28 04:03:35;;;;;;;0.28;0.00;;;;;;;18.61;63.75;102517.56;4935144;29;20040;-69
2021/09/28 04:06:00;;;;;;;0.52;0.20;;;;;;;18.70;61.96;102524.13;4934602;29;20086;-69
2021/09/28 04:08:26;;;;;;;0.40;0.10;;;;;;;18.79;62.78;102519.72;4934300;29;20182;-69
2021/09/28 04:10:51;;;;;;;0.00;0.00;;;;;;;18.86;62.93;102520.91;4934821;29;20566;-69
2021/09/28 04:13:16;;;;;;;0.47;0.10;;;;;;;18.92;61.62;102526.69;4934507;29;20172;-69
2021/09/28 04:15:41;;;;;;;0.25;0.10;;;;;;;18.99;62.36;102526.16;4933546;29;20114;-69
2021/09/28 04:18:11;;;;;;;0.68;0.00;;;;;;;19.08;62.21;102528.06;4935427;29;20175;-69
2021/09/28 04:20:39;;;;;;;0.95;0.30;;;;;;;19.16;61.88;102522.81;4934994;29;20511;-69
2021/09/28 04:23:05;;;;;;;0.20;0.20;;;;;;;19.22;61.90;102527.69;4934195;29;20039;-70
2021/09/28 04:25:31;;;;;;;0.30;0.10;;;;;;;19.24;63.46;102521.09;4918567;29;20115;-69
2021/09/28 04:27:56;;;;;;;0.20;0.20;;;;;;;19.32;61.47;102527.75;4934458;29;20490;-70
2021/09/28 04:30:22;;;;;;;1.23;0.63;;;;;;;19.34;62.56;102526.63;4934309;29;20449;-69
2021/09/28 04:32:48;;;;;;;0.10;0.05;;;;;;;19.36;62.57;102531.94;5025944;28;20156;-69
2021/09/28 04:35:13;;;;;;;0.55;0.10;;;;;;;19.37;61.93;102531.78;5033448;28;20120;-70
2021/09/28 04:37:39;;;;;;;0.20;0.10;;;;;;;19.39;62.93;102529.78;5035097;28;20461;-69
2021/09/28 04:40:05;;;;;;;0.35;0.00;;;;;;;19.41;61.04;102532.38;5033743;28;20041;-69
2021/09/28 04:42:30;;;;;;;0.38;0.10;;;;;;;19.45;63.58;102518.31;5033504;28;20029;-69
2021/09/28 04:44:55;;;;;;;0.10;0.00;;;;;;;19.44;62.80;102532.94;5033742;28;20032;-69
2021/09/28 04:47:20;;;;;;;0.30;0.10;;;;;;;19.47;62.64;102532.66;5033525;28;20025;-69
2021/09/28 04:49:46;;;;;;;0.10;0.08;;;;;;;19.49;62.96;102529.84;5033659;28;20024;-69
2021/09/28 04:52:11;;;;;;;0.10;0.10;;;;;;;19.48;62.42;102528.97;5033372;28;20029;-69
2021/09/28 04:54:36;;;;;;;0.15;0.10;;;;;;;19.52;62.88;102526.81;5044471;28;20528;-69
2021/09/28 04:57:02;;;;;;;0.30;0.10;;;;;;;19.52;62.54;102529.56;5034463;28;20350;-68
2021/09/28 04:59:27;;;;;;;0.03;0.00;;;;;;;19.52;62.21;102527.69;5015848;28;20021;-69
2021/09/28 05:01:53;;;;;;;0.28;0.10;;;;;;;19.53;63.12;102521.22;5033202;28;20399;-70
2021/09/28 05:04:18;;;;;;;0.25;0.10;;;;;;;19.56;63.18;102521.97;5033396;28;20699;-69
2021/09/28 05:06:43;;;;;;;0.43;0.10;;;;;;;19.57;62.34;102512.78;5033429;28;20025;-69
2021/09/28 05:09:09;;;;;;;0.68;0.10;;;;;;;19.59;61.53;102508.91;5032961;28;20155;-69
2021/09/28 05:11:34;;;;;;;0.22;0.10;;;;;;;19.58;63.10;102512.66;5033167;28;20523;-69
2021/09/28 05:14:00;;;;;;;0.60;0.10;;;;;;;19.59;64.05;102519.81;5032969;28;20031;-69
2021/09/28 05:16:26;;;;;;;0.17;0.05;;;;;;;19.60;63.38;102521.56;5032705;28;20022;-69
2021/09/28 05:18:51;;;;;;;0.10;0.00;;;;;;;19.63;62.98;102525.88;5032331;28;20369;-70
2021/09/28 05:21:17;;;;;;;1.15;0.10;;;;;;;19.66;62.18;102520.16;5047481;28;20033;-69
2021/09/28 05:23:46;;;;;;;0.32;0.08;;;;;;;19.66;63.99;102526.47;5033255;28;20135;-69
2021/09/28 05:26:13;;;;;;;0.52;0.10;;;;;;;19.65;62.62;102512.94;5032846;28;20060;-70
2021/09/28 05:28:38;;;;;;;0.28;0.10;;;;;;;19.67;62.69;102516.41;5033233;28;20096;-69
2021/09/28 05:31:04;;;;;;;0.55;0.20;;;;;;;19.68;62.77;102518.16;5032847;28;20061;-69
2021/09/28 05:33:29;;;;;;;0.20;0.00;;;;;;;19.69;62.91;102508.94;5033195;28;20037;-69
2021/09/28 05:35:55;;;;;;;0.32;0.10;;;;;;;19.71;62.75;102520.59;5032825;28;20156;-69
2021/09/28 05:38:21;;;;;;;0.10;0.08;;;;;;;19.72;63.96;102519.59;5032912;28;20029;-69
2021/09/28 05:40:46;;;;;;;0.75;0.10;;;;;;;19.71;62.84;102517.84;5033939;28;20021;-69
2021/09/28 05:43:11;;;;;;;1.83;0.32;;;;;;;19.70;65.34;102527.03;5032914;28;20026;-70
2021/09/28 05:45:37;;;;;;;0.57;0.10;;;;;;;19.69;62.59;102526.19;5032851;28;20029;-69
2021/09/28 05:48:02;;;;;;;0.17;0.10;;;;;;;19.72;63.57;102525.03;5032977;28;20053;-69
2021/09/28 05:50:28;;;;;;;0.28;0.00;;;;;;;19.74;63.35;102528.50;5032559;28;20065;-70
2021/09/28 05:52:55;;;;;;;0.30;0.10;;;;;;;19.73;63.80;102521.31;5032946;28;20049;-69
2021/09/28 05:55:21;;;;;;;0.20;0.00;;;;;;;19.73;64.66;102530.34;5032689;28;20036;-69
2021/09/28 05:57:47;;;;;;;0.57;0.25;;;;;;;19.74;63.88;102528.50;5032849;28;20032;-69
2021/09/28 06:00:15;;;;;;;0.52;0.10;;;;;;;19.74;63.30;102529.34;5032519;28;20029;-69
2021/09/28 06:02:44;;;;;;;0.20;0.10;;;;;;;19.75;63.81;102522.03;5032986;28;20034;-70
2021/09/28 06:05:09;;;;;;;0.25;0.08;;;;;;;19.77;62.96;102530.94;5032366;28;20037;-69
2021/09/28 06:07:36;;;;;;;0.52;0.10;;;;;;;19.77;64.02;102528.19;5035210;28;20028;-69
2021/09/28 06:10:01;;;;;;;0.35;0.10;;;;;;;19.74;63.72;102529.34;5045468;28;20052;-69
2021/09/28 06:12:56;;;;;;;0.32;0.25;;;;;;;19.75;63.33;102535.66;5061672;28;20016;-69
2021/09/28 06:15:21;;;;;;;0.03;0.03;;;;;;;19.75;63.72;102535.66;5052913;28;20064;-69
2021/09/28 06:17:47;;;;;;;1.85;0.55;;;;;;;19.73;63.30;102541.28;5032487;28;20061;-69
2021/09/28 06:20:12;;;;;;;0.47;0.10;;;;;;;19.74;62.59;102539.41;5032679;28;20460;-70
2021/09/28 06:22:38;;;;;;;0.35;0.20;;;;;;;19.74;63.24;102534.81;5014775;28;20104;-70
2021/09/28 06:25:05;;;;;;;0.20;0.20;;;;;;;19.75;63.47;102535.66;5014116;28;20108;-68
2021/09/28 06:27:31;;;;;;;0.40;0.10;;;;;;;19.72;63.16;102527.75;5020027;28;20022;-69
2021/09/28 06:29:56;;;;;;;0.28;0.15;;;;;;;19.75;63.90;102536.53;5027652;28;20029;-69
2021/09/28 06:32:23;;;;;;;0.17;0.00;;;;;;;19.81;64.03;102532.38;5037907;28;20024;-69
2021/09/28 06:34:49;;;;;;;0.75;0.13;;;;;;;19.79;63.05;102548.03;5044996;28;20029;-69
2021/09/28 06:37:15;;;;;;;0.20;0.00;;;;;;;19.81;63.05;102552.34;5035097;28;20022;-69
2021/09/28 06:39:41;;;;;;;0.15;0.00;;;;;;;19.82;64.39;102562.28;5034799;28;20072;-69
2021/09/28 06:42:06;;;;;;;0.32;0.10;;;;;;;19.80;64.70;102555.22;5046866;28;20069;-69
2021/09/28 06:44:32;;;;;;;0.20;0.20;;;;;;;19.82;63.83;102575.06;5042503;28;20108;-69
2021/09/28 06:46:57;;;;;;;0.25;0.20;;;;;;;19.81;62.69;102578.75;5034721;28;20036;-69
2021/09/28 06:49:22;;;;;;;0.00;0.00;;;;;;;19.80;65.82;102579.78;5030438;28;20025;-71
2021/09/28 06:51:48;;;;;;;0.35;0.00;;;;;;;19.81;64.22;102576.91;5032951;28;20067;-69
2021/09/28 06:54:13;;;;;;;0.17;0.17;;;;;;;19.90;64.26;102575.22;5033146;28;20048;-70
2021/09/28 06:56:38;;;;;;;0.73;0.20;;;;;;;20.02;64.65;102574.09;5033947;28;20061;-68
2021/09/28 06:59:08;;;;;;;1.50;0.10;;;;;;;20.31;63.62;102575.97;5033538;28;20447;-67
2021/09/28 07:01:40;;;;;;;0.40;0.13;;;;;;;20.40;63.77;102572.41;5031722;28;20132;-67
2021/09/28 07:04:06;;;;;;;0.20;0.10;;;;;;;20.39;62.59;102578.88;5034684;28;20033;-67
2021/09/28 07:06:32;;;;;;;0.52;0.15;;;;;;;20.45;63.96;102580.19;5034817;28;20037;-67
2021/09/28 07:08:58;;;;;;;0.13;0.00;;;;;;;20.46;64.61;102574.59;5031672;28;20017;-67
2021/09/28 07:11:23;;;;;;;0.40;0.10;;;;;;;20.45;65.29;102583.78;5037993;28;20034;-67
2021/09/28 07:13:50;;;;;;;0.05;0.00;;;;;;;20.48;64.44;102583.50;5039091;28;20044;-67
2021/09/28 07:16:15;;;;;;;0.82;0.10;;;;;;;20.40;63.72;102588.78;5034393;28;20399;-67
2021/09/28 07:18:41;;;;;;;0.55;0.10;;;;;;;20.45;61.97;102589.25;5016741;28;20021;-67
2021/09/28 07:21:07;;;;;;;0.30;0.30;;;;;;;20.46;62.36;102585.50;5034316;28;20029;-67
2021/09/28 07:23:32;;;;;;;0.13;0.03;;;;;;;20.45;60.92;102589.25;5031359;28;20467;-68
2021/09/28 07:25:58;;;;;;;0.00;0.00;;;;;;;20.40;61.49;102594.25;5014336;28;20037;-67
2021/09/28 07:28:23;;;;;;;0.57;0.35;;;;;;;20.50;63.71;102592.44;5014751;28;20018;-67
2021/09/28 07:30:50;;;;;;;0.00;0.00;;;;;;;20.46;61.73;102590.97;5015365;28;20034;-68
2021/09/28 07:33:15;;;;;;;0.10;0.10;;;;;;;20.46;62.95;102595.59;5015849;28;20034;-67
2021/09/28 07:35:44;;;;;;;0.22;0.00;;;;;;;20.32;65.07;102597.72;5015343;28;20084;-67
2021/09/28 07:38:10;;;;;;;0.10;0.10;;;;;;;20.42;62.47;102590.41;5014926;28;20058;-67
2021/09/28 07:40:35;;;;;;;0.30;0.10;;;;;;;20.42;60.90;102589.53;4997381;28;20034;-67
2021/09/28 07:43:00;;;;;;;0.68;0.10;;;;;;;20.47;62.55;102600.91;5014524;28;20029;-67
2021/09/28 07:48:48;;;;;;;0.10;0.10;;;;;;;20.46;63.32;102607.38;5038974;28;20412;-67
2021/09/28 07:51:15;;;;;;;0.00;0.00;;;;;;;20.50;61.96;102597.91;5016759;28;20033;-67
2021/09/28 07:53:41;;;;;;;0.30;0.00;;;;;;;20.43;63.65;102608.53;5035428;28;20029;-67
2021/09/28 07:56:06;;;;;;;1.30;0.20;;;;;;;20.42;61.73;102603.19;5034438;28;20043;-67
2021/09/28 07:58:32;;;;;;;1.20;0.20;;;;;;;20.45;61.16;102605.66;5034170;28;20061;-67
2021/09/28 08:00:57;;;;;;;0.60;0.30;;;;;;;20.44;62.17;102609.38;5034647;28;20514;-68
2021/09/28 08:03:22;;;;;;;0.10;0.00;;;;;;;20.53;62.58;102616.75;5034319;28;20068;-67
2021/09/28 08:05:49;;;;;;;0.05;0.05;;;;;;;20.44;65.25;102609.38;5034351;28;20030;-68
2021/09/28 08:08:14;;;;;;;0.93;0.10;;;;;;;20.54;62.71;102613.00;5033907;28;20484;-67
2021/09/28 08:10:40;;;;;;;0.30;0.03;;;;;;;20.51;61.85;102610.56;5016471;28;20144;-67
2021/09/28 08:13:05;;;;;;;0.10;0.00;;;;;;;20.61;60.46;102621.47;5031575;28;20074;-67
2021/09/28 08:15:33;;;;;;;0.57;0.10;;;;;;;20.49;61.26;102622.59;5020185;28;20076;-67
2021/09/28 08:17:58;;;;;;;0.13;0.13;;;;;;;20.47;62.96;102617.28;5014382;28;20098;-68
2021/09/28 08:20:24;;;;;;;0.05;0.03;;;;;;;20.43;62.48;102618.59;5033537;28;20108;-67
2021/09/28 08:22:49;;;;;;;1.02;0.20;;;;;;;20.46;61.32;102618.28;5027262;28;20037;-67
2021/09/28 08:25:17;;;;;;;0.30;0.08;;;;;;;20.48;61.14;102616.28;5024271;28;20144;-68
2021/09/28 08:30:27;;;;;;;;;;;;;;;20.45;62.02;102622.03;5033323;28;20135;-68
2021/09/28 08:32:53;;;;;;;1.20;0.10;;;;;;;20.42;62.47;102619.59;5032298;28;20366;-67
2021/09/28 08:35:19;;;;;;;0.85;0.10;;;;;;;20.45;62.00;102629.38;5033558;28;20036;-67
2021/09/28 08:37:44;;;;;;;0.30;0.00;;;;;;;20.42;61.34;102608.66;5022371;28;20029;-68
2021/09/28 08:40:12;;;;;;;0.10;0.10;;;;;;;20.59;61.57;102602.50;5033598;28;20108;-67
2021/09/28 08:42:38;;;;;;;0.28;0.10;;;;;;;20.50;61.05;102602.50;5013618;28;20064;-67
2021/09/28 08:45:05;;;;;;;0.35;0.17;;;;;;;20.47;61.88;102603.63;5013835;28;20049;-68
2021/09/28 08:47:38;;;;;;;0.10;0.00;;;;;;;20.49;61.29;102607.09;5016048;28;20026;-65
2021/09/28 08:50:15;;;;;;;0.63;0.15;;;;;;;20.49;62.40;102614.41;5039620;28;20041;-67
2021/09/28 08:52:42;;;;;;;0.35;0.25;;;;;;;20.53;63.92;102605.81;5031790;28;20064;-67
2021/09/28 08:55:38;;;;;;;0.05;0.05;;;;;;;20.43;64.11;102613.13;5013018;28;20053;-67
2021/09/28 08:58:23;;;;;;;0.13;0.00;;;;;;;20.40;63.37;102614.25;4951510;29;20043;-67
2021/09/28 09:00:52;;;;;;;0.13;0.03;;;;;;;20.51;60.99;102612.44;4953160;29;20035;-68
2021/09/28 09:03:28;;;;;;;0.52;0.20;;;;;;;20.51;60.62;102617.91;4951460;29;20074;-67
2021/09/28 09:05:54;;;;;;;0.25;0.10;;;;;;;20.41;64.37;102620.59;4952962;29;20475;-67
2021/09/28 09:08:25;;;;;;;0.20;0.00;;;;;;;20.45;62.69;102622.03;4952745;29;20074;-68
2021/09/28 09:11:00;;;;;;;0.30;0.22;;;;;;;20.47;61.62;102620.03;4939266;29;20051;-67
2021/09/28 09:13:47;;;;;;;0.98;0.13;;;;;;;20.51;63.16;102620.63;4934076;29;20106;-68
2021/09/28 09:16:14;;;;;;;0.25;0.10;;;;;;;20.51;62.51;102629.69;4936984;29;20552;-67
2021/09/28 09:18:42;;;;;;;0.30;0.03;;;;;;;20.46;62.11;102617.44;4962133;29;20047;-68
2021/09/28 09:21:08;;;;;;;0.63;0.00;;;;;;;20.55;60.99;102625.66;4952923;29;20545;-67
2021/09/28 09:23:36;;;;;;;0.77;0.17;;;;;;;20.52;62.19;102633.28;4951148;29;20093;-67
2021/09/28 09:26:08;;;;;;;1.45;0.10;;;;;;;20.48;62.07;102632.69;4952829;29;20034;-68
2021/09/28 09:28:41;;;;;;;0.28;0.10;;;;;;;20.52;64.88;102636.88;4952851;29;20035;-67
2021/09/28 09:31:12;;;;;;;0.63;0.10;;;;;;;20.57;61.67;102631.84;4951855;29;20047;-67
2021/09/28 09:33:39;;;;;;;0.28;0.10;;;;;;;20.49;61.64;102639.00;4964149;28;20072;-67
2021/09/28 09:36:05;;;;;;;0.05;0.05;;;;;;;20.52;62.31;102634.13;5028688;28;20034;-68
2021/09/28 09:38:39;;;;;;;0.30;0.13;;;;;;;20.47;64.31;102636.41;5013104;28;20063;-67
2021/09/28 09:41:04;;;;;;;0.10;0.10;;;;;;;20.50;61.40;102635.28;5016080;28;20052;-67
2021/09/28 09:43:32;;;;;;;0.10;0.10;;;;;;;20.51;62.36;102632.41;5024561;28;20037;-68
2021/09/28 09:49:25;;;;;;;0.20;0.10;;;;;;;20.45;65.32;102632.97;5037741;28;20560;-67
2021/09/28 09:51:53;;;;;;;0.90;0.10;;;;;;;20.51;63.66;102632.41;5032895;28;20087;-68
2021/09/28 09:54:30;;;;;;;0.30;0.10;;;;;;;20.54;63.18;102640.31;5032429;28;20065;-67
2021/09/28 09:56:57;;;;;;;0.45;0.10;;;;;;;20.52;63.68;102630.56;5022560;28;20056;-67
2021/09/28 09:59:23;;;;;;;0.98;0.25;;;;;;;20.56;62.59;102646.50;5013125;28;20022;-68
2021/09/28 10:01:51;;;;;;;0.13;0.10;;;;;;;20.54;63.32;102642.19;5012844;28;20030;-67
2021/09/28 10:04:19;;;;;;;0.40;0.15;;;;;;;20.51;63.13;102648.81;5030444;28;20029;-68
2021/09/28 10:06:45;;;;;;;1.73;0.20;;;;;;;20.53;61.21;102643.19;5036113;28;20029;-67
2021/09/28 10:09:31;;;;;;;0.52;0.10;;;;;;;20.57;63.74;102641.91;5028646;28;20036;-68
2021/09/28 10:12:00;;;;;;;0.10;0.00;;;;;;;20.52;63.96;102639.59;5036365;28;20061;-67
2021/09/28 10:14:31;;;;;;;0.50;0.20;;;;;;;20.52;62.93;102636.00;5036350;28;20028;-66
2021/09/28 10:20:22;;;;;;;0.17;0.10;;;;;;;20.48;63.39;102640.00;5022214;28;20117;-67
2021/09/28 10:22:55;;;;;;;1.00;0.10;;;;;;;20.46;67.45;102634.69;5018059;28;20041;-67
2021/09/28 10:25:20;;;;;;;0.77;0.13;;;;;;;20.44;64.11;102642.16;5033802;28;20112;-67
2021/09/28 10:27:47;;;;;;;0.35;0.10;;;;;;;20.51;62.91;102640.63;5018462;28;20537;-68
2021/09/28 10:33:00;;;;;;;0.55;0.10;;;;;;;20.50;65.29;102643.50;4936192;29;20075;-68
2021/09/28 10:35:26;;;;;;;0.55;0.13;;;;;;;20.52;63.41;102639.59;4936613;29;20127;-67
2021/09/28 10:37:53;;;;;;;1.45;0.10;;;;;;;20.55;63.40;102639.31;4936257;29;20043;-68
2021/09/28 10:40:21;;;;;;;0.00;0.00;;;;;;;20.48;66.30;102637.28;4936495;29;20046;-68
2021/09/28 10:43:23;;;;;;;0.40;0.15;;;;;;;20.52;63.13;102641.47;4938029;29;20031;-67
2021/09/28 10:45:48;;;;;;;0.60;0.10;;;;;;;20.51;63.51;102634.28;4860887;29;20041;-67
2021/09/28 10:48:26;;;;;;;0.13;0.03;;;;;;;20.53;63.69;102635.88;4861298;29;20055;-67
2021/09/28 10:51:10;;;;;;;1.45;0.10;;;;;;;20.55;62.78;102639.31;4861235;29;20124;-67
2021/09/28 10:53:36;;;;;;;0.10;0.10;;;;;;;20.50;65.00;102636.16;4845848;29;20033;-68
2021/09/28 10:56:11;;;;;;;0.73;0.10;;;;;;;20.52;63.94;102644.22;4861290;29;20538;-67
2021/09/28 10:59:06;;;;;;;0.30;0.10;;;;;;;20.56;63.52;102643.78;4862090;29;20741;-67
2021/09/28 11:01:33;;;;;;;0.52;0.00;;;;;;;20.50;64.00;102647.09;4861243;29;20628;-67
2021/09/28 11:04:02;;;;;;;0.10;0.10;;;;;;;20.48;64.54;102649.06;4860673;29;20041;-67
2021/09/28 11:06:48;;;;;;;0.40;0.10;;;;;;;20.51;65.67;102647.94;4861227;29;20025;-68
2021/09/28 11:10:05;;;;;;;0.63;0.30;;;;;;;20.50;63.65;102647.09;4874647;29;20063;-62
2021/09/28 11:12:30;;;;;;;0.10;0.00;;;;;;;20.49;62.26;102653.56;4933000;29;20060;-67
2021/09/28 11:14:57;;;;;;;0.55;0.10;;;;;;;20.48;63.92;102654.53;4916581;29;20076;-68
2021/09/28 11:17:22;;;;;;;0.15;0.05;;;;;;;20.53;65.03;102654.13;4915853;29;20523;-67
2021/09/28 11:19:48;;;;;;;0.63;0.10;;;;;;;20.52;64.35;102650.53;4920889;29;20138;-68
2021/09/28 11:22:19;;;;;;;0.93;0.20;;;;;;;20.53;63.85;102646.78;4956298;28;20045;-68
2021/09/28 11:24:45;;;;;;;1.75;0.03;;;;;;;20.54;64.44;102643.06;4995328;28;20026;-67
2021/09/28 11:27:10;;;;;;;0.20;0.00;;;;;;;20.54;62.53;102648.53;4992820;28;20019;-68
2021/09/28 11:29:37;;;;;;;1.00;0.20;;;;;;;20.55;62.53;102644.78;4994893;28;20040;-68
2021/09/28 11:32:04;;;;;;;0.65;0.22;;;;;;;20.52;64.60;102645.06;4995436;28;20030;-67
2021/09/28 11:34:33;;;;;;;0.20;0.10;;;;;;;20.53;63.48;102655.00;4994046;28;20044;-68
2021/09/28 11:37:03;;;;;;;0.70;0.10;;;;;;;20.50;64.62;102641.63;4995266;28;20026;-67
2021/09/28 11:39:40;;;;;;;0.10;0.00;;;;;;;20.51;63.67;102643.34;4995060;28;20022;-67
2021/09/28 11:42:07;;;;;;;0.70;0.10;;;;;;;20.53;64.56;102641.34;4979531;28;20038;-67
2021/09/28 11:44:45;;;;;;;0.00;0.00;;;;;;;20.52;64.03;102645.06;4977780;28;20077;-67
2021/09/28 11:47:17;;;;;;;0.55;0.03;;;;;;;20.50;62.11;102647.09;4988732;28;20105;-68